sensor_id;sensor_type;location;lat;lon;timestamp;P1;durP1;ratioP1;P2;durP2;ratioP2
70320;SDS011;61127;55.826;37.046;2022-09-09T00:01:06;5.05;;;3.55;;
70320;SDS011;61127;55.826;37.046;2022-09-09T00:03:47;6.20;;;3.50;;
70320;SDS011;61127;55.826;37.046;2022-09-09T00:06:20;6.95;;;3.72;;
70320;SDS011;61127;55.826;37.046;2022-09-09T00:08:56;6.75;;;3.65;;
70320;SDS011;61127;55.826;37.046;2022-09-09T00:12:00;7.85;;;3.63;;
70320;SDS011;61127;55.826;37.046;2022-09-09T00:16:50;6.30;;;3.60;;
70320;SDS011;61127;55.826;37.046;2022-09-09T00:19:42;7.10;;;3.58;;
70320;SDS011;61127;55.826;37.046;2022-09-09T00:22:18;6.47;;;3.72;;
70320;SDS011;61127;55.826;37.046;2022-09-09T00:24:53;5.28;;;3.10;;
70320;SDS011;61127;55.826;37.046;2022-09-09T00:27:28;5.07;;;3.40;;
70320;SDS011;61127;55.826;37.046;2022-09-09T00:32:24;6.05;;;3.15;;
70320;SDS011;61127;55.826;37.046;2022-09-09T00:35:04;7.22;;;3.40;;
70320;SDS011;61127;55.826;37.046;2022-09-09T00:37:36;5.22;;;3.20;;
70320;SDS011;61127;55.826;37.046;2022-09-09T00:40:05;5.75;;;3.10;;
70320;SDS011;61127;55.826;37.046;2022-09-09T00:42:40;5.60;;;2.95;;
70320;SDS011;61127;55.826;37.046;2022-09-09T00:45:17;5.15;;;3.05;;
70320;SDS011;61127;55.826;37.046;2022-09-09T00:47:45;9.20;;;3.40;;
70320;SDS011;61127;55.826;37.046;2022-09-09T00:52:57;7.40;;;3.22;;
70320;SDS011;61127;55.826;37.046;2022-09-09T00:57:53;5.80;;;2.55;;
70320;SDS011;61127;55.826;37.046;2022-09-09T01:00:24;5.27;;;2.90;;
70320;SDS011;61127;55.826;37.046;2022-09-09T01:08:39;5.57;;;2.63;;
70320;SDS011;61127;55.826;37.046;2022-09-09T01:11:10;4.55;;;2.63;;
70320;SDS011;61127;55.826;37.046;2022-09-09T01:13:40;5.00;;;2.42;;
70320;SDS011;61127;55.826;37.046;2022-09-09T01:16:08;4.97;;;2.70;;
70320;SDS011;61127;55.826;37.046;2022-09-09T01:18:38;5.15;;;2.72;;
70320;SDS011;61127;55.826;37.046;2022-09-09T01:26:26;3.97;;;2.00;;
70320;SDS011;61127;55.826;37.046;2022-09-09T01:28:53;4.20;;;2.30;;
70320;SDS011;61127;55.826;37.046;2022-09-09T01:31:32;3.00;;;2.00;;
70320;SDS011;61127;55.826;37.046;2022-09-09T01:34:01;5.15;;;2.10;;
70320;SDS011;61127;55.826;37.046;2022-09-09T01:36:42;3.78;;;2.10;;
70320;SDS011;61127;55.826;37.046;2022-09-09T01:39:09;6.07;;;2.30;;
70320;SDS011;61127;55.826;37.046;2022-09-09T01:41:35;4.93;;;2.33;;
70320;SDS011;61127;55.826;37.046;2022-09-09T01:44:05;4.25;;;1.92;;
70320;SDS011;61127;55.826;37.046;2022-09-09T01:46:33;4.72;;;2.35;;
70320;SDS011;61127;55.826;37.046;2022-09-09T01:49:00;3.78;;;2.25;;
70320;SDS011;61127;55.826;37.046;2022-09-09T01:51:27;3.05;;;2.30;;
70320;SDS011;61127;55.826;37.046;2022-09-09T01:53:57;4.47;;;2.35;;
70320;SDS011;61127;55.826;37.046;2022-09-09T01:59:03;3.15;;;2.20;;
70320;SDS011;61127;55.826;37.046;2022-09-09T02:01:39;3.45;;;1.98;;
70320;SDS011;61127;55.826;37.046;2022-09-09T02:04:17;4.05;;;2.13;;
70320;SDS011;61127;55.826;37.046;2022-09-09T02:06:45;5.97;;;2.33;;
70320;SDS011;61127;55.826;37.046;2022-09-09T02:09:24;3.38;;;2.10;;
70320;SDS011;61127;55.826;37.046;2022-09-09T02:12:02;3.60;;;1.88;;
70320;SDS011;61127;55.826;37.046;2022-09-09T02:14:42;3.10;;;1.90;;
70320;SDS011;61127;55.826;37.046;2022-09-09T02:17:13;3.05;;;1.92;;
70320;SDS011;61127;55.826;37.046;2022-09-09T02:19:59;3.88;;;1.90;;
70320;SDS011;61127;55.826;37.046;2022-09-09T02:22:42;3.72;;;2.10;;
70320;SDS011;61127;55.826;37.046;2022-09-09T02:25:12;3.13;;;1.90;;
70320;SDS011;61127;55.826;37.046;2022-09-09T02:27:41;3.45;;;1.70;;
70320;SDS011;61127;55.826;37.046;2022-09-09T02:30:09;4.22;;;2.10;;
70320;SDS011;61127;55.826;37.046;2022-09-09T02:32:41;5.28;;;2.03;;
70320;SDS011;61127;55.826;37.046;2022-09-09T02:37:45;3.13;;;2.13;;
70320;SDS011;61127;55.826;37.046;2022-09-09T02:40:12;5.57;;;2.38;;
70320;SDS011;61127;55.826;37.046;2022-09-09T02:42:44;5.03;;;2.20;;
70320;SDS011;61127;55.826;37.046;2022-09-09T02:45:12;3.28;;;1.90;;
70320;SDS011;61127;55.826;37.046;2022-09-09T02:47:44;3.63;;;2.10;;
70320;SDS011;61127;55.826;37.046;2022-09-09T02:50:15;4.18;;;2.05;;
70320;SDS011;61127;55.826;37.046;2022-09-09T02:55:24;4.15;;;2.00;;
70320;SDS011;61127;55.826;37.046;2022-09-09T02:57:55;3.45;;;1.92;;
70320;SDS011;61127;55.826;37.046;2022-09-09T03:00:23;4.60;;;2.00;;
70320;SDS011;61127;55.826;37.046;2022-09-09T03:02:50;3.78;;;2.15;;
70320;SDS011;61127;55.826;37.046;2022-09-09T03:05:17;4.25;;;2.03;;
70320;SDS011;61127;55.826;37.046;2022-09-09T03:07:44;4.20;;;2.05;;
70320;SDS011;61127;55.826;37.046;2022-09-09T03:10:10;4.15;;;1.90;;
70320;SDS011;61127;55.826;37.046;2022-09-09T03:12:36;3.70;;;2.10;;
70320;SDS011;61127;55.826;37.046;2022-09-09T03:15:03;4.43;;;2.13;;
70320;SDS011;61127;55.826;37.046;2022-09-09T03:17:30;3.80;;;2.00;;
70320;SDS011;61127;55.826;37.046;2022-09-09T03:19:56;3.90;;;2.20;;
70320;SDS011;61127;55.826;37.046;2022-09-09T03:22:24;4.93;;;2.35;;
70320;SDS011;61127;55.826;37.046;2022-09-09T03:24:51;4.63;;;2.38;;
70320;SDS011;61127;55.826;37.046;2022-09-09T03:27:17;4.28;;;2.30;;
70320;SDS011;61127;55.826;37.046;2022-09-09T03:29:45;3.92;;;2.20;;
70320;SDS011;61127;55.826;37.046;2022-09-09T03:32:13;3.28;;;1.98;;
70320;SDS011;61127;55.826;37.046;2022-09-09T03:34:41;3.72;;;2.17;;
70320;SDS011;61127;55.826;37.046;2022-09-09T03:37:09;3.75;;;1.73;;
70320;SDS011;61127;55.826;37.046;2022-09-09T03:39:35;4.20;;;2.20;;
70320;SDS011;61127;55.826;37.046;2022-09-09T03:42:00;3.40;;;2.00;;
70320;SDS011;61127;55.826;37.046;2022-09-09T03:44:30;4.18;;;1.80;;
70320;SDS011;61127;55.826;37.046;2022-09-09T03:46:56;3.40;;;1.90;;
70320;SDS011;61127;55.826;37.046;2022-09-09T03:49:22;4.25;;;2.10;;
70320;SDS011;61127;55.826;37.046;2022-09-09T03:51:48;4.25;;;1.83;;
70320;SDS011;61127;55.826;37.046;2022-09-09T03:54:15;3.15;;;2.00;;
70320;SDS011;61127;55.826;37.046;2022-09-09T03:56:41;3.85;;;2.00;;
70320;SDS011;61127;55.826;37.046;2022-09-09T03:59:09;4.20;;;1.80;;
70320;SDS011;61127;55.826;37.046;2022-09-09T04:01:35;3.40;;;1.90;;
70320;SDS011;61127;55.826;37.046;2022-09-09T04:04:03;3.55;;;2.00;;
70320;SDS011;61127;55.826;37.046;2022-09-09T04:06:28;3.72;;;1.85;;
70320;SDS011;61127;55.826;37.046;2022-09-09T04:08:55;3.55;;;1.80;;
70320;SDS011;61127;55.826;37.046;2022-09-09T04:11:21;4.70;;;1.90;;
70320;SDS011;61127;55.826;37.046;2022-09-09T04:13:51;3.33;;;1.80;;
70320;SDS011;61127;55.826;37.046;2022-09-09T04:16:19;3.00;;;1.80;;
70320;SDS011;61127;55.826;37.046;2022-09-09T04:18:46;2.67;;;1.60;;
70320;SDS011;61127;55.826;37.046;2022-09-09T04:21:13;2.78;;;1.73;;
70320;SDS011;61127;55.826;37.046;2022-09-09T04:23:42;3.00;;;1.70;;
70320;SDS011;61127;55.826;37.046;2022-09-09T04:26:08;4.75;;;1.90;;
70320;SDS011;61127;55.826;37.046;2022-09-09T04:28:36;3.17;;;1.80;;
70320;SDS011;61127;55.826;37.046;2022-09-09T04:31:04;2.75;;;1.45;;
70320;SDS011;61127;55.826;37.046;2022-09-09T04:33:31;2.95;;;1.77;;
70320;SDS011;61127;55.826;37.046;2022-09-09T04:35:57;4.72;;;1.55;;
70320;SDS011;61127;55.826;37.046;2022-09-09T04:38:24;4.13;;;1.90;;
70320;SDS011;61127;55.826;37.046;2022-09-09T04:40:52;2.53;;;1.42;;
70320;SDS011;61127;55.826;37.046;2022-09-09T04:43:21;3.33;;;1.67;;
70320;SDS011;61127;55.826;37.046;2022-09-09T04:45:49;2.47;;;1.50;;
70320;SDS011;61127;55.826;37.046;2022-09-09T04:48:15;3.00;;;1.70;;
70320;SDS011;61127;55.826;37.046;2022-09-09T04:50:41;3.17;;;1.63;;
70320;SDS011;61127;55.826;37.046;2022-09-09T04:53:09;4.53;;;1.48;;
70320;SDS011;61127;55.826;37.046;2022-09-09T04:55:36;2.58;;;1.40;;
70320;SDS011;61127;55.826;37.046;2022-09-09T04:58:04;2.30;;;1.30;;
70320;SDS011;61127;55.826;37.046;2022-09-09T05:00:30;3.88;;;1.75;;
70320;SDS011;61127;55.826;37.046;2022-09-09T05:02:56;5.15;;;1.65;;
70320;SDS011;61127;55.826;37.046;2022-09-09T05:05:23;3.83;;;1.50;;
70320;SDS011;61127;55.826;37.046;2022-09-09T05:07:51;3.90;;;1.40;;
70320;SDS011;61127;55.826;37.046;2022-09-09T05:10:18;1.95;;;1.30;;
70320;SDS011;61127;55.826;37.046;2022-09-09T05:12:51;2.10;;;1.42;;
70320;SDS011;61127;55.826;37.046;2022-09-09T05:15:19;2.22;;;1.40;;
70320;SDS011;61127;55.826;37.046;2022-09-09T05:17:46;1.92;;;1.13;;
70320;SDS011;61127;55.826;37.046;2022-09-09T05:20:12;2.60;;;1.00;;
70320;SDS011;61127;55.826;37.046;2022-09-09T05:22:38;3.72;;;1.30;;
70320;SDS011;61127;55.826;37.046;2022-09-09T05:25:05;2.83;;;1.30;;
70320;SDS011;61127;55.826;37.046;2022-09-09T05:27:31;3.95;;;1.40;;
70320;SDS011;61127;55.826;37.046;2022-09-09T05:29:58;2.63;;;1.10;;
70320;SDS011;61127;55.826;37.046;2022-09-09T05:32:25;2.60;;;1.05;;
70320;SDS011;61127;55.826;37.046;2022-09-09T05:34:52;2.03;;;1.00;;
70320;SDS011;61127;55.826;37.046;2022-09-09T05:37:18;2.30;;;1.10;;
70320;SDS011;61127;55.826;37.046;2022-09-09T05:39:44;1.60;;;1.23;;
70320;SDS011;61127;55.826;37.046;2022-09-09T05:42:11;1.48;;;1.20;;
70320;SDS011;61127;55.826;37.046;2022-09-09T05:44:37;2.22;;;1.00;;
70320;SDS011;61127;55.826;37.046;2022-09-09T05:47:03;1.80;;;1.10;;
70320;SDS011;61127;55.826;37.046;2022-09-09T05:49:28;1.55;;;0.70;;
70320;SDS011;61127;55.826;37.046;2022-09-09T05:51:54;2.53;;;0.87;;
70320;SDS011;61127;55.826;37.046;2022-09-09T05:54:22;1.55;;;0.70;;
70320;SDS011;61127;55.826;37.046;2022-09-09T05:56:50;0.82;;;0.63;;
70320;SDS011;61127;55.826;37.046;2022-09-09T05:59:18;1.98;;;0.70;;
70320;SDS011;61127;55.826;37.046;2022-09-09T06:01:44;1.40;;;0.73;;
70320;SDS011;61127;55.826;37.046;2022-09-09T06:04:19;1.57;;;0.70;;
70320;SDS011;61127;55.826;37.046;2022-09-09T06:06:50;4.00;;;0.90;;
70320;SDS011;61127;55.826;37.046;2022-09-09T06:09:19;1.95;;;0.70;;
70320;SDS011;61127;55.826;37.046;2022-09-09T06:11:46;1.40;;;1.00;;
70320;SDS011;61127;55.826;37.046;2022-09-09T06:14:13;2.90;;;0.82;;
70320;SDS011;61127;55.826;37.046;2022-09-09T06:16:39;1.63;;;0.70;;
70320;SDS011;61127;55.826;37.046;2022-09-09T06:19:14;1.10;;;0.70;;
70320;SDS011;61127;55.826;37.046;2022-09-09T06:21:40;1.40;;;0.60;;
70320;SDS011;61127;55.826;37.046;2022-09-09T06:24:10;1.40;;;0.77;;
70320;SDS011;61127;55.826;37.046;2022-09-09T06:26:39;0.80;;;0.47;;
70320;SDS011;61127;55.826;37.046;2022-09-09T06:31:41;1.13;;;0.50;;
70320;SDS011;61127;55.826;37.046;2022-09-09T06:34:19;1.38;;;0.75;;
70320;SDS011;61127;55.826;37.046;2022-09-09T06:36:49;1.38;;;0.63;;
70320;SDS011;61127;55.826;37.046;2022-09-09T06:39:15;0.73;;;0.45;;
70320;SDS011;61127;55.826;37.046;2022-09-09T06:41:41;1.10;;;0.70;;
70320;SDS011;61127;55.826;37.046;2022-09-09T06:44:19;1.08;;;0.70;;
70320;SDS011;61127;55.826;37.046;2022-09-09T06:46:46;0.70;;;0.70;;
70320;SDS011;61127;55.826;37.046;2022-09-09T06:49:14;0.50;;;0.50;;
70320;SDS011;61127;55.826;37.046;2022-09-09T06:51:40;1.47;;;0.60;;
70320;SDS011;61127;55.826;37.046;2022-09-09T06:54:12;0.98;;;0.70;;
70320;SDS011;61127;55.826;37.046;2022-09-09T06:56:41;1.67;;;0.75;;
70320;SDS011;61127;55.826;37.046;2022-09-09T06:59:13;2.72;;;1.20;;
70320;SDS011;61127;55.826;37.046;2022-09-09T07:01:40;2.53;;;1.20;;
70320;SDS011;61127;55.826;37.046;2022-09-09T07:04:11;3.97;;;1.37;;
70320;SDS011;61127;55.826;37.046;2022-09-09T07:06:41;2.08;;;1.27;;
70320;SDS011;61127;55.826;37.046;2022-09-09T07:09:11;1.42;;;0.68;;
70320;SDS011;61127;55.826;37.046;2022-09-09T07:11:40;0.90;;;0.52;;
70320;SDS011;61127;55.826;37.046;2022-09-09T07:14:08;1.00;;;0.70;;
70320;SDS011;61127;55.826;37.046;2022-09-09T07:16:34;6.93;;;4.27;;
70320;SDS011;61127;55.826;37.046;2022-09-09T07:19:03;3.25;;;1.90;;
70320;SDS011;61127;55.826;37.046;2022-09-09T07:21:30;2.53;;;1.00;;
70320;SDS011;61127;55.826;37.046;2022-09-09T07:23:58;2.58;;;0.80;;
70320;SDS011;61127;55.826;37.046;2022-09-09T07:26:27;3.42;;;2.45;;
70320;SDS011;61127;55.826;37.046;2022-09-09T07:28:53;0.50;;;0.50;;
70320;SDS011;61127;55.826;37.046;2022-09-09T07:31:22;0.90;;;0.60;;
70320;SDS011;61127;55.826;37.046;2022-09-09T07:33:49;2.60;;;0.40;;
70320;SDS011;61127;55.826;37.046;2022-09-09T07:38:41;2.27;;;1.77;;
70320;SDS011;61127;55.826;37.046;2022-09-09T07:41:16;1.33;;;0.80;;
70320;SDS011;61127;55.826;37.046;2022-09-09T07:43:44;0.50;;;0.40;;
70320;SDS011;61127;55.826;37.046;2022-09-09T07:46:12;0.90;;;0.40;;
70320;SDS011;61127;55.826;37.046;2022-09-09T07:48:38;1.80;;;0.40;;
70320;SDS011;61127;55.826;37.046;2022-09-09T07:51:05;0.93;;;0.50;;
70320;SDS011;61127;55.826;37.046;2022-09-09T07:53:33;0.52;;;0.45;;
70320;SDS011;61127;55.826;37.046;2022-09-09T07:56:04;2.13;;;0.90;;
70320;SDS011;61127;55.826;37.046;2022-09-09T07:58:30;5.93;;;3.60;;
70320;SDS011;61127;55.826;37.046;2022-09-09T08:00:56;2.10;;;1.20;;
70320;SDS011;61127;55.826;37.046;2022-09-09T08:03:24;1.00;;;0.50;;
70320;SDS011;61127;55.826;37.046;2022-09-09T08:05:50;1.50;;;0.50;;
70320;SDS011;61127;55.826;37.046;2022-09-09T08:08:17;1.70;;;1.30;;
70320;SDS011;61127;55.826;37.046;2022-09-09T08:10:42;3.55;;;1.10;;
70320;SDS011;61127;55.826;37.046;2022-09-09T08:16:06;1.42;;;1.00;;
70320;SDS011;61127;55.826;37.046;2022-09-09T08:18:32;1.17;;;0.50;;
70320;SDS011;61127;55.826;37.046;2022-09-09T08:20:57;1.80;;;0.60;;
70320;SDS011;61127;55.826;37.046;2022-09-09T08:23:35;1.02;;;0.68;;
70320;SDS011;61127;55.826;37.046;2022-09-09T08:26:06;1.85;;;0.80;;
70320;SDS011;61127;55.826;37.046;2022-09-09T08:28:32;2.40;;;0.63;;
70320;SDS011;61127;55.826;37.046;2022-09-09T08:31:05;0.50;;;0.50;;
70320;SDS011;61127;55.826;37.046;2022-09-09T08:33:32;0.65;;;0.40;;
70320;SDS011;61127;55.826;37.046;2022-09-09T08:35:59;2.92;;;1.60;;
70320;SDS011;61127;55.826;37.046;2022-09-09T08:38:25;7.00;;;3.15;;
70320;SDS011;61127;55.826;37.046;2022-09-09T08:40:51;3.87;;;1.77;;
70320;SDS011;61127;55.826;37.046;2022-09-09T08:43:21;8.13;;;3.60;;
70320;SDS011;61127;55.826;37.046;2022-09-09T08:48:17;1.63;;;0.60;;
70320;SDS011;61127;55.826;37.046;2022-09-09T08:50:45;0.70;;;0.43;;
70320;SDS011;61127;55.826;37.046;2022-09-09T08:53:24;0.60;;;0.50;;
70320;SDS011;61127;55.826;37.046;2022-09-09T09:03:36;3.50;;;0.38;;
70320;SDS011;61127;55.826;37.046;2022-09-09T09:06:26;2.78;;;0.80;;
70320;SDS011;61127;55.826;37.046;2022-09-09T09:09:06;4.72;;;2.00;;
70320;SDS011;61127;55.826;37.046;2022-09-09T09:11:39;11.98;;;5.75;;
70320;SDS011;61127;55.826;37.046;2022-09-09T09:16:49;0.63;;;0.40;;
70320;SDS011;61127;55.826;37.046;2022-09-09T09:19:16;0.98;;;0.40;;
70320;SDS011;61127;55.826;37.046;2022-09-09T09:21:45;1.10;;;0.50;;
70320;SDS011;61127;55.826;37.046;2022-09-09T09:25:00;0.73;;;0.45;;
70320;SDS011;61127;55.826;37.046;2022-09-09T09:27:21;0.80;;;0.40;;
70320;SDS011;61127;55.826;37.046;2022-09-09T09:29:51;1.65;;;0.40;;
70320;SDS011;61127;55.826;37.046;2022-09-09T09:32:19;2.75;;;0.40;;
70320;SDS011;61127;55.826;37.046;2022-09-09T09:34:51;0.40;;;0.40;;
70320;SDS011;61127;55.826;37.046;2022-09-09T09:37:28;0.80;;;0.70;;
70320;SDS011;61127;55.826;37.046;2022-09-09T09:43:40;1.13;;;0.40;;
70320;SDS011;61127;55.826;37.046;2022-09-09T09:47:27;1.67;;;0.40;;
70320;SDS011;61127;55.826;37.046;2022-09-09T09:50:15;0.30;;;0.30;;
70320;SDS011;61127;55.826;37.046;2022-09-09T09:52:42;0.68;;;0.40;;
70320;SDS011;61127;55.826;37.046;2022-09-09T09:55:12;1.20;;;0.50;;
70320;SDS011;61127;55.826;37.046;2022-09-09T09:57:39;0.47;;;0.47;;
70320;SDS011;61127;55.826;37.046;2022-09-09T10:00:12;1.33;;;0.55;;
70320;SDS011;61127;55.826;37.046;2022-09-09T10:02:46;1.13;;;0.50;;
70320;SDS011;61127;55.826;37.046;2022-09-09T10:05:19;0.57;;;0.50;;
70320;SDS011;61127;55.826;37.046;2022-09-09T10:21:17;1.10;;;0.60;;
70320;SDS011;61127;55.826;37.046;2022-09-09T10:36:52;0.60;;;0.50;;
70320;SDS011;61127;55.826;37.046;2022-09-09T10:41:52;2.30;;;0.55;;
70320;SDS011;61127;55.826;37.046;2022-09-09T10:44:34;0.75;;;0.57;;
70320;SDS011;61127;55.826;37.046;2022-09-09T10:57:46;0.80;;;0.70;;
70320;SDS011;61127;55.826;37.046;2022-09-09T11:00:23;1.00;;;0.80;;
70320;SDS011;61127;55.826;37.046;2022-09-09T11:02:56;0.50;;;0.50;;
70320;SDS011;61127;55.826;37.046;2022-09-09T11:11:04;3.55;;;0.70;;
70320;SDS011;61127;55.826;37.046;2022-09-09T11:13:42;1.35;;;0.57;;
70320;SDS011;61127;55.826;37.046;2022-09-09T11:19:03;2.35;;;0.57;;
70320;SDS011;61127;55.826;37.046;2022-09-09T11:21:38;1.70;;;0.55;;
70320;SDS011;61127;55.826;37.046;2022-09-09T11:24:12;0.60;;;0.50;;
70320;SDS011;61127;55.826;37.046;2022-09-09T11:26:45;2.08;;;1.13;;
70320;SDS011;61127;55.826;37.046;2022-09-09T11:34:27;1.17;;;0.90;;
70320;SDS011;61127;55.826;37.046;2022-09-09T11:37:02;1.65;;;0.80;;
70320;SDS011;61127;55.826;37.046;2022-09-09T11:44:51;1.40;;;1.30;;
70320;SDS011;61127;55.826;37.046;2022-09-09T11:47:27;1.60;;;1.50;;
70320;SDS011;61127;55.826;37.046;2022-09-09T11:52:44;1.77;;;1.20;;
70320;SDS011;61127;55.826;37.046;2022-09-09T11:55:27;1.02;;;0.80;;
70320;SDS011;61127;55.826;37.046;2022-09-09T11:57:58;2.08;;;1.55;;
70320;SDS011;61127;55.826;37.046;2022-09-09T12:00:58;2.03;;;1.70;;
70320;SDS011;61127;55.826;37.046;2022-09-09T12:03:33;1.60;;;1.50;;
70320;SDS011;61127;55.826;37.046;2022-09-09T12:06:08;2.55;;;2.10;;
70320;SDS011;61127;55.826;37.046;2022-09-09T12:08:34;2.80;;;2.10;;
70320;SDS011;61127;55.826;37.046;2022-09-09T12:11:02;2.10;;;1.80;;
70320;SDS011;61127;55.826;37.046;2022-09-09T12:13:30;1.90;;;1.80;;
70320;SDS011;61127;55.826;37.046;2022-09-09T12:15:57;2.27;;;2.10;;
70320;SDS011;61127;55.826;37.046;2022-09-09T12:18:24;2.72;;;2.10;;
70320;SDS011;61127;55.826;37.046;2022-09-09T12:21:01;2.47;;;2.38;;
70320;SDS011;61127;55.826;37.046;2022-09-09T12:26:13;3.40;;;3.10;;
70320;SDS011;61127;55.826;37.046;2022-09-09T12:33:49;3.67;;;2.97;;
70320;SDS011;61127;55.826;37.046;2022-09-09T12:36:16;2.53;;;2.33;;
70320;SDS011;61127;55.826;37.046;2022-09-09T12:38:43;2.50;;;2.30;;
70320;SDS011;61127;55.826;37.046;2022-09-09T12:41:17;2.63;;;2.43;;
70320;SDS011;61127;55.826;37.046;2022-09-09T12:43:44;2.13;;;2.03;;
70320;SDS011;61127;55.826;37.046;2022-09-09T12:46:15;2.42;;;2.22;;
70320;SDS011;61127;55.826;37.046;2022-09-09T12:48:45;2.58;;;2.22;;
70320;SDS011;61127;55.826;37.046;2022-09-09T12:51:25;2.47;;;2.30;;
70320;SDS011;61127;55.826;37.046;2022-09-09T12:53:53;2.20;;;2.10;;
70320;SDS011;61127;55.826;37.046;2022-09-09T12:56:20;2.30;;;2.10;;
70320;SDS011;61127;55.826;37.046;2022-09-09T12:58:47;2.40;;;1.80;;
70320;SDS011;61127;55.826;37.046;2022-09-09T13:03:53;2.20;;;2.00;;
70320;SDS011;61127;55.826;37.046;2022-09-09T13:06:20;2.63;;;2.08;;
70320;SDS011;61127;55.826;37.046;2022-09-09T13:08:49;2.13;;;1.92;;
70320;SDS011;61127;55.826;37.046;2022-09-09T13:11:17;2.60;;;2.00;;
70320;SDS011;61127;55.826;37.046;2022-09-09T13:13:49;2.45;;;1.92;;
70320;SDS011;61127;55.826;37.046;2022-09-09T13:16:20;1.80;;;1.70;;
70320;SDS011;61127;55.826;37.046;2022-09-09T13:18:46;2.53;;;1.92;;
70320;SDS011;61127;55.826;37.046;2022-09-09T13:21:12;2.85;;;1.90;;
70320;SDS011;61127;55.826;37.046;2022-09-09T13:23:38;2.22;;;2.13;;
70320;SDS011;61127;55.826;37.046;2022-09-09T13:26:06;2.33;;;2.13;;
70320;SDS011;61127;55.826;37.046;2022-09-09T13:28:33;2.00;;;1.90;;
70320;SDS011;61127;55.826;37.046;2022-09-09T13:31:19;3.63;;;2.00;;
70320;SDS011;61127;55.826;37.046;2022-09-09T13:33:45;1.90;;;1.80;;
70320;SDS011;61127;55.826;37.046;2022-09-09T13:36:11;3.00;;;1.90;;
70320;SDS011;61127;55.826;37.046;2022-09-09T13:38:52;2.13;;;1.83;;
70320;SDS011;61127;55.826;37.046;2022-09-09T13:41:19;3.38;;;2.10;;
70320;SDS011;61127;55.826;37.046;2022-09-09T13:43:47;2.40;;;2.20;;
70320;SDS011;61127;55.826;37.046;2022-09-09T13:46:25;1.98;;;1.80;;
70320;SDS011;61127;55.826;37.046;2022-09-09T13:49:02;2.47;;;2.00;;
70320;SDS011;61127;55.826;37.046;2022-09-09T13:51:39;1.92;;;1.70;;
70320;SDS011;61127;55.826;37.046;2022-09-09T13:54:05;2.42;;;1.90;;
70320;SDS011;61127;55.826;37.046;2022-09-09T13:56:36;2.05;;;1.90;;
70320;SDS011;61127;55.826;37.046;2022-09-09T13:59:03;1.63;;;1.52;;
70320;SDS011;61127;55.826;37.046;2022-09-09T14:01:29;2.57;;;1.50;;
70320;SDS011;61127;55.826;37.046;2022-09-09T14:03:55;1.70;;;1.60;;
70320;SDS011;61127;55.826;37.046;2022-09-09T14:06:22;1.27;;;1.10;;
70320;SDS011;61127;55.826;37.046;2022-09-09T14:08:49;1.23;;;1.05;;
70320;SDS011;61127;55.826;37.046;2022-09-09T14:11:16;2.30;;;1.10;;
70320;SDS011;61127;55.826;37.046;2022-09-09T14:13:43;1.67;;;1.15;;
70320;SDS011;61127;55.826;37.046;2022-09-09T14:16:11;2.63;;;1.60;;
70320;SDS011;61127;55.826;37.046;2022-09-09T14:18:36;4.30;;;2.00;;
70320;SDS011;61127;55.826;37.046;2022-09-09T14:21:03;3.35;;;1.60;;
70320;SDS011;61127;55.826;37.046;2022-09-09T14:23:31;2.77;;;1.70;;
70320;SDS011;61127;55.826;37.046;2022-09-09T14:25:57;3.58;;;2.20;;
70320;SDS011;61127;55.826;37.046;2022-09-09T14:28:23;2.97;;;2.30;;
70320;SDS011;61127;55.826;37.046;2022-09-09T14:30:49;5.00;;;2.72;;
70320;SDS011;61127;55.826;37.046;2022-09-09T14:33:15;7.43;;;3.57;;
70320;SDS011;61127;55.826;37.046;2022-09-09T14:35:41;4.90;;;3.30;;
70320;SDS011;61127;55.826;37.046;2022-09-09T14:38:07;4.85;;;2.60;;
70320;SDS011;61127;55.826;37.046;2022-09-09T14:40:34;5.27;;;2.03;;
70320;SDS011;61127;55.826;37.046;2022-09-09T14:43:00;2.95;;;1.65;;
70320;SDS011;61127;55.826;37.046;2022-09-09T14:45:26;2.58;;;1.30;;
70320;SDS011;61127;55.826;37.046;2022-09-09T14:47:52;2.03;;;1.20;;
70320;SDS011;61127;55.826;37.046;2022-09-09T14:50:19;1.65;;;1.17;;
70320;SDS011;61127;55.826;37.046;2022-09-09T14:52:45;2.35;;;1.30;;
70320;SDS011;61127;55.826;37.046;2022-09-09T14:55:11;2.55;;;1.40;;
70320;SDS011;61127;55.826;37.046;2022-09-09T14:57:38;2.15;;;1.17;;
70320;SDS011;61127;55.826;37.046;2022-09-09T15:00:06;2.50;;;1.23;;
70320;SDS011;61127;55.826;37.046;2022-09-09T15:02:32;3.05;;;1.23;;
70320;SDS011;61127;55.826;37.046;2022-09-09T15:04:58;3.30;;;1.50;;
70320;SDS011;61127;55.826;37.046;2022-09-09T15:07:24;3.27;;;1.30;;
70320;SDS011;61127;55.826;37.046;2022-09-09T15:09:50;3.10;;;1.40;;
70320;SDS011;61127;55.826;37.046;2022-09-09T15:12:16;2.72;;;1.48;;
70320;SDS011;61127;55.826;37.046;2022-09-09T15:17:35;3.13;;;1.52;;
70320;SDS011;61127;55.826;37.046;2022-09-09T15:20:04;2.95;;;1.42;;
70320;SDS011;61127;55.826;37.046;2022-09-09T15:22:31;3.72;;;1.65;;
70320;SDS011;61127;55.826;37.046;2022-09-09T15:24:58;4.90;;;2.00;;
70320;SDS011;61127;55.826;37.046;2022-09-09T15:27:24;4.53;;;1.67;;
70320;SDS011;61127;55.826;37.046;2022-09-09T15:29:50;3.40;;;1.80;;
70320;SDS011;61127;55.826;37.046;2022-09-09T15:32:17;2.13;;;1.30;;
70320;SDS011;61127;55.826;37.046;2022-09-09T15:34:44;2.25;;;1.35;;
70320;SDS011;61127;55.826;37.046;2022-09-09T15:37:10;4.75;;;1.60;;
70320;SDS011;61127;55.826;37.046;2022-09-09T15:39:38;2.05;;;1.13;;
70320;SDS011;61127;55.826;37.046;2022-09-09T15:42:05;1.75;;;1.10;;
70320;SDS011;61127;55.826;37.046;2022-09-09T15:44:42;2.77;;;1.00;;
70320;SDS011;61127;55.826;37.046;2022-09-09T15:47:10;1.67;;;1.10;;
70320;SDS011;61127;55.826;37.046;2022-09-09T15:49:36;2.20;;;0.82;;
70320;SDS011;61127;55.826;37.046;2022-09-09T15:52:02;1.50;;;1.00;;
70320;SDS011;61127;55.826;37.046;2022-09-09T15:54:31;1.58;;;0.80;;
70320;SDS011;61127;55.826;37.046;2022-09-09T15:56:58;2.75;;;1.30;;
70320;SDS011;61127;55.826;37.046;2022-09-09T15:59:26;1.45;;;1.00;;
70320;SDS011;61127;55.826;37.046;2022-09-09T16:01:53;1.35;;;0.90;;
70320;SDS011;61127;55.826;37.046;2022-09-09T16:04:22;2.73;;;1.10;;
70320;SDS011;61127;55.826;37.046;2022-09-09T16:06:52;1.70;;;1.00;;
70320;SDS011;61127;55.826;37.046;2022-09-09T16:09:18;2.17;;;1.08;;
70320;SDS011;61127;55.826;37.046;2022-09-09T16:11:45;2.97;;;1.10;;
70320;SDS011;61127;55.826;37.046;2022-09-09T16:14:13;2.28;;;1.30;;
70320;SDS011;61127;55.826;37.046;2022-09-09T16:16:42;2.23;;;1.00;;
70320;SDS011;61127;55.826;37.046;2022-09-09T16:19:09;4.18;;;1.27;;
70320;SDS011;61127;55.826;37.046;2022-09-09T16:21:39;2.53;;;1.08;;
70320;SDS011;61127;55.826;37.046;2022-09-09T16:24:06;4.25;;;1.50;;
70320;SDS011;61127;55.826;37.046;2022-09-09T16:26:35;3.65;;;1.38;;
70320;SDS011;61127;55.826;37.046;2022-09-09T16:29:01;2.90;;;1.27;;
70320;SDS011;61127;55.826;37.046;2022-09-09T16:31:28;2.20;;;1.10;;
70320;SDS011;61127;55.826;37.046;2022-09-09T16:33:54;3.05;;;1.25;;
70320;SDS011;61127;55.826;37.046;2022-09-09T16:36:20;5.03;;;1.60;;
70320;SDS011;61127;55.826;37.046;2022-09-09T16:38:46;3.20;;;1.58;;
70320;SDS011;61127;55.826;37.046;2022-09-09T16:41:13;3.73;;;1.80;;
70320;SDS011;61127;55.826;37.046;2022-09-09T16:43:39;4.88;;;2.00;;
70320;SDS011;61127;55.826;37.046;2022-09-09T16:46:13;4.03;;;2.17;;
70320;SDS011;61127;55.826;37.046;2022-09-09T16:48:41;6.43;;;2.05;;
70320;SDS011;61127;55.826;37.046;2022-09-09T16:51:09;3.93;;;2.23;;
70320;SDS011;61127;55.826;37.046;2022-09-09T16:53:37;5.75;;;2.15;;
70320;SDS011;61127;55.826;37.046;2022-09-09T16:56:07;2.88;;;1.67;;